sensor_id;sensor_type;location;lat;lon;timestamp;pressure;altitude;pressure_sealevel;temperature;humidity
33625;BME280;19962;47.820;1.930;2023-02-08T00:00:22;102407.06;;;5.12;64.68
33625;BME280;19962;47.820;1.930;2023-02-08T00:02:49;102414.38;;;5.12;65.02
33625;BME280;19962;47.820;1.930;2023-02-08T00:05:16;102408.47;;;5.16;64.64
33625;BME280;19962;47.820;1.930;2023-02-08T00:07:42;102416.84;;;5.05;64.62
33625;BME280;19962;47.820;1.930;2023-02-08T00:10:09;102412.44;;;4.85;64.90
33625;BME280;19962;47.820;1.930;2023-02-08T00:12:36;102408.16;;;4.92;65.11
33625;BME280;19962;47.820;1.930;2023-02-08T00:15:03;102404.78;;;5.08;65.03
33625;BME280;19962;47.820;1.930;2023-02-08T00:17:30;102395.09;;;5.23;64.79
33625;BME280;19962;47.820;1.930;2023-02-08T00:19:56;102401.63;;;5.12;64.28
33625;BME280;19962;47.820;1.930;2023-02-08T00:22:22;102398.41;;;4.99;64.61
33625;BME280;19962;47.820;1.930;2023-02-08T00:24:49;102386.88;;;4.78;65.01
33625;BME280;19962;47.820;1.930;2023-02-08T00:27:16;102396.22;;;4.66;65.63
33625;BME280;19962;47.820;1.930;2023-02-08T00:29:42;102392.81;;;4.64;65.89
33625;BME280;19962;47.820;1.930;2023-02-08T00:32:09;102392.03;;;4.81;65.36
33625;BME280;19962;47.820;1.930;2023-02-08T00:34:36;102394.25;;;4.95;65.08
33625;BME280;19962;47.820;1.930;2023-02-08T00:37:02;102397.56;;;5.16;64.72
33625;BME280;19962;47.820;1.930;2023-02-08T00:39:28;102389.00;;;5.11;64.27
33625;BME280;19962;47.820;1.930;2023-02-08T00:41:54;102384.63;;;5.01;64.32
33625;BME280;19962;47.820;1.930;2023-02-08T00:44:20;102380.03;;;4.74;65.00
33625;BME280;19962;47.820;1.930;2023-02-08T00:46:46;102378.72;;;4.78;65.15
33625;BME280;19962;47.820;1.930;2023-02-08T00:49:12;102374.59;;;4.74;65.33
33625;BME280;19962;47.820;1.930;2023-02-08T00:51:38;102377.78;;;4.60;65.42
33625;BME280;19962;47.820;1.930;2023-02-08T00:54:04;102382.09;;;4.53;66.13
33625;BME280;19962;47.820;1.930;2023-02-08T00:56:31;102383.09;;;4.52;66.10
33625;BME280;19962;47.820;1.930;2023-02-08T00:58:57;102380.09;;;4.46;66.33
33625;BME280;19962;47.820;1.930;2023-02-08T01:01:23;102368.22;;;4.56;66.32
33625;BME280;19962;47.820;1.930;2023-02-08T01:03:49;102373.75;;;4.64;66.04
33625;BME280;19962;47.820;1.930;2023-02-08T01:06:17;102378.06;;;4.57;66.19
33625;BME280;19962;47.820;1.930;2023-02-08T01:08:43;102374.66;;;4.55;66.17
33625;BME280;19962;47.820;1.930;2023-02-08T01:11:11;102378.53;;;4.43;66.47
33625;BME280;19962;47.820;1.930;2023-02-08T01:13:38;102375.22;;;4.49;66.45
33625;BME280;19962;47.820;1.930;2023-02-08T01:16:07;102371.22;;;4.53;66.54
33625;BME280;19962;47.820;1.930;2023-02-08T01:18:33;102366.09;;;4.41;66.82
33625;BME280;19962;47.820;1.930;2023-02-08T01:21:20;102362.16;;;4.16;67.41
33625;BME280;19962;47.820;1.930;2023-02-08T01:23:47;102353.53;;;4.30;67.35
33625;BME280;19962;47.820;1.930;2023-02-08T01:26:15;102358.81;;;4.41;67.04
33625;BME280;19962;47.820;1.930;2023-02-08T01:28:42;102370.50;;;4.51;66.61
33625;BME280;19962;47.820;1.930;2023-02-08T01:31:11;102366.66;;;4.44;66.92
33625;BME280;19962;47.820;1.930;2023-02-08T01:33:38;102357.94;;;4.50;66.73
33625;BME280;19962;47.820;1.930;2023-02-08T01:36:05;102358.38;;;4.46;66.61
33625;BME280;19962;47.820;1.930;2023-02-08T01:38:33;102356.59;;;4.54;66.70
33625;BME280;19962;47.820;1.930;2023-02-08T01:40:59;102357.75;;;4.61;66.42
33625;BME280;19962;47.820;1.930;2023-02-08T01:43:29;102352.59;;;4.58;67.05
33625;BME280;19962;47.820;1.930;2023-02-08T01:45:55;102356.72;;;4.62;66.57
33625;BME280;19962;47.820;1.930;2023-02-08T01:48:36;102352.44;;;4.60;66.50
33625;BME280;19962;47.820;1.930;2023-02-08T01:53:30;102352.56;;;4.68;66.14
33625;BME280;19962;47.820;1.930;2023-02-08T01:56:01;102346.69;;;4.72;66.30
33625;BME280;19962;47.820;1.930;2023-02-08T01:58:31;102349.69;;;4.69;65.90
33625;BME280;19962;47.820;1.930;2023-02-08T02:00:59;102341.03;;;4.56;66.32
33625;BME280;19962;47.820;1.930;2023-02-08T02:03:27;102338.91;;;4.50;66.41
33625;BME280;19962;47.820;1.930;2023-02-08T02:06:08;102342.06;;;4.36;66.56
33625;BME280;19962;47.820;1.930;2023-02-08T02:08:35;102338.94;;;4.41;66.79
33625;BME280;19962;47.820;1.930;2023-02-08T02:11:04;102339.81;;;4.41;66.93
33625;BME280;19962;47.820;1.930;2023-02-08T02:13:30;102336.06;;;4.42;66.64
33625;BME280;19962;47.820;1.930;2023-02-08T02:15:57;102339.47;;;4.44;66.82
33625;BME280;19962;47.820;1.930;2023-02-08T02:18:26;102330.78;;;4.41;66.72
33625;BME280;19962;47.820;1.930;2023-02-08T02:23:53;102325.06;;;4.44;66.72
33625;BME280;19962;47.820;1.930;2023-02-08T02:29:30;102320.69;;;4.14;67.07
33625;BME280;19962;47.820;1.930;2023-02-08T02:40:49;102310.13;;;4.02;67.79
33625;BME280;19962;47.820;1.930;2023-02-08T02:49:15;102312.69;;;4.03;67.55
33625;BME280;19962;47.820;1.930;2023-02-08T02:51:57;102312.28;;;3.98;67.94
33625;BME280;19962;47.820;1.930;2023-02-08T02:55:12;102303.41;;;4.15;67.58
33625;BME280;19962;47.820;1.930;2023-02-08T02:57:32;102298.22;;;4.22;67.49
33625;BME280;19962;47.820;1.930;2023-02-08T03:00:00;102295.19;;;4.34;66.93
33625;BME280;19962;47.820;1.930;2023-02-08T03:02:31;102296.72;;;4.46;66.85
33625;BME280;19962;47.820;1.930;2023-02-08T03:04:57;102297.38;;;4.58;66.29
33625;BME280;19962;47.820;1.930;2023-02-08T03:07:55;102285.44;;;4.41;66.05
33625;BME280;19962;47.820;1.930;2023-02-08T03:10:59;102285.13;;;4.44;66.37
33625;BME280;19962;47.820;1.930;2023-02-08T03:19:30;102275.56;;;4.67;65.19
33625;BME280;19962;47.820;1.930;2023-02-08T03:22:01;102269.88;;;4.61;65.36
33625;BME280;19962;47.820;1.930;2023-02-08T03:27:09;102283.03;;;4.29;65.55
33625;BME280;19962;47.820;1.930;2023-02-08T03:32:28;102286.28;;;4.42;65.48
33625;BME280;19962;47.820;1.930;2023-02-08T03:35:08;102279.13;;;4.50;65.53
33625;BME280;19962;47.820;1.930;2023-02-08T03:38:24;102275.97;;;4.45;64.83
33625;BME280;19962;47.820;1.930;2023-02-08T03:40:36;102284.53;;;4.14;65.48
33625;BME280;19962;47.820;1.930;2023-02-08T03:43:12;102290.56;;;3.98;66.12
33625;BME280;19962;47.820;1.930;2023-02-08T03:45:50;102280.84;;;3.96;66.45
33625;BME280;19962;47.820;1.930;2023-02-08T03:48:20;102277.13;;;4.06;66.35
33625;BME280;19962;47.820;1.930;2023-02-08T03:50:50;102288.53;;;4.00;66.08
33625;BME280;19962;47.820;1.930;2023-02-08T03:53:20;102276.69;;;4.01;65.96
33625;BME280;19962;47.820;1.930;2023-02-08T03:55:49;102282.69;;;4.05;66.13
33625;BME280;19962;47.820;1.930;2023-02-08T03:58:48;102285.53;;;4.13;65.59
33625;BME280;19962;47.820;1.930;2023-02-08T04:01:29;102288.38;;;4.11;65.48
33625;BME280;19962;47.820;1.930;2023-02-08T04:03:58;102298.84;;;3.97;66.07
33625;BME280;19962;47.820;1.930;2023-02-08T04:06:25;102299.88;;;3.86;66.02
33625;BME280;19962;47.820;1.930;2023-02-08T04:08:52;102303.31;;;3.79;66.62
33625;BME280;19962;47.820;1.930;2023-02-08T04:11:18;102300.03;;;3.75;66.46
33625;BME280;19962;47.820;1.930;2023-02-08T04:13:44;102305.16;;;3.59;66.70
33625;BME280;19962;47.820;1.930;2023-02-08T04:16:13;102313.88;;;3.72;67.00
33625;BME280;19962;47.820;1.930;2023-02-08T04:18:40;102310.75;;;3.77;66.66
33625;BME280;19962;47.820;1.930;2023-02-08T04:21:06;102311.03;;;3.83;66.40
33625;BME280;19962;47.820;1.930;2023-02-08T04:23:32;102315.47;;;3.84;66.65
33625;BME280;19962;47.820;1.930;2023-02-08T04:25:58;102315.88;;;3.89;66.46
33625;BME280;19962;47.820;1.930;2023-02-08T04:28:24;102318.00;;;3.95;66.28
33625;BME280;19962;47.820;1.930;2023-02-08T04:30:50;102316.59;;;3.82;66.28
33625;BME280;19962;47.820;1.930;2023-02-08T04:33:16;102313.59;;;3.66;66.77
33625;BME280;19962;47.820;1.930;2023-02-08T04:35:42;102314.03;;;3.61;66.83
33625;BME280;19962;47.820;1.930;2023-02-08T04:38:09;102307.19;;;3.57;66.95
33625;BME280;19962;47.820;1.930;2023-02-08T04:40:36;102310.44;;;3.51;67.12
33625;BME280;19962;47.820;1.930;2023-02-08T04:43:02;102312.47;;;3.49;67.48
33625;BME280;19962;47.820;1.930;2023-02-08T04:45:29;102303.19;;;3.61;67.31
33625;BME280;19962;47.820;1.930;2023-02-08T04:47:57;102303.03;;;3.53;67.24
33625;BME280;19962;47.820;1.930;2023-02-08T04:50:23;102300.16;;;3.64;67.27
33625;BME280;19962;47.820;1.930;2023-02-08T04:52:50;102303.63;;;3.66;67.03
33625;BME280;19962;47.820;1.930;2023-02-08T04:55:16;102299.63;;;3.70;67.00
33625;BME280;19962;47.820;1.930;2023-02-08T04:57:42;102292.59;;;3.77;66.66
33625;BME280;19962;47.820;1.930;2023-02-08T05:00:08;102281.31;;;3.72;66.65
33625;BME280;19962;47.820;1.930;2023-02-08T05:02:35;102275.47;;;3.48;67.16
33625;BME280;19962;47.820;1.930;2023-02-08T05:05:01;102282.47;;;3.41;67.64
33625;BME280;19962;47.820;1.930;2023-02-08T05:07:27;102271.03;;;3.47;67.47
33625;BME280;19962;47.820;1.930;2023-02-08T05:09:53;102270.47;;;3.44;67.51
33625;BME280;19962;47.820;1.930;2023-02-08T05:12:19;102265.31;;;3.41;67.62
33625;BME280;19962;47.820;1.930;2023-02-08T05:14:45;102261.31;;;3.54;67.73
33625;BME280;19962;47.820;1.930;2023-02-08T05:17:11;102251.63;;;3.52;67.46
33625;BME280;19962;47.820;1.930;2023-02-08T05:19:37;102260.47;;;3.63;67.33
33625;BME280;19962;47.820;1.930;2023-02-08T05:22:03;102264.47;;;3.59;67.24
33625;BME280;19962;47.820;1.930;2023-02-08T05:24:29;102253.03;;;3.56;67.36
33625;BME280;19962;47.820;1.930;2023-02-08T05:26:55;102256.19;;;3.61;66.98
33625;BME280;19962;47.820;1.930;2023-02-08T05:29:22;102255.13;;;3.81;66.78
33625;BME280;19962;47.820;1.930;2023-02-08T05:31:48;102249.84;;;3.89;66.52
33625;BME280;19962;47.820;1.930;2023-02-08T05:34:14;102244.88;;;3.84;66.40
33625;BME280;19962;47.820;1.930;2023-02-08T05:36:40;102248.88;;;3.80;66.28
33625;BME280;19962;47.820;1.930;2023-02-08T05:39:06;102235.88;;;3.74;66.40
33625;BME280;19962;47.820;1.930;2023-02-08T05:41:32;102246.50;;;3.39;67.10
33625;BME280;19962;47.820;1.930;2023-02-08T05:43:58;102247.34;;;3.21;67.71
33625;BME280;19962;47.820;1.930;2023-02-08T05:46:24;102241.78;;;3.41;67.59
33625;BME280;19962;47.820;1.930;2023-02-08T05:48:51;102241.91;;;3.49;67.19
33625;BME280;19962;47.820;1.930;2023-02-08T05:51:17;102245.06;;;3.35;67.16
33625;BME280;19962;47.820;1.930;2023-02-08T05:53:43;102246.47;;;3.30;67.68
33625;BME280;19962;47.820;1.930;2023-02-08T05:56:10;102245.34;;;3.32;67.60
33625;BME280;19962;47.820;1.930;2023-02-08T05:58:36;102240.75;;;3.42;67.19
33625;BME280;19962;47.820;1.930;2023-02-08T06:01:08;102246.63;;;3.38;67.31
33625;BME280;19962;47.820;1.930;2023-02-08T06:03:35;102244.34;;;3.33;67.19
33625;BME280;19962;47.820;1.930;2023-02-08T06:06:01;102255.06;;;3.44;67.19
33625;BME280;19962;47.820;1.930;2023-02-08T06:08:27;102255.34;;;3.41;67.22
33625;BME280;19962;47.820;1.930;2023-02-08T06:10:53;102251.03;;;3.58;67.06
33625;BME280;19962;47.820;1.930;2023-02-08T06:13:19;102244.19;;;3.63;66.53
33625;BME280;19962;47.820;1.930;2023-02-08T06:15:45;102257.63;;;3.46;67.00
33625;BME280;19962;47.820;1.930;2023-02-08T06:18:11;102249.47;;;3.55;66.79
33625;BME280;19962;47.820;1.930;2023-02-08T06:20:38;102255.31;;;3.60;66.46
33625;BME280;19962;47.820;1.930;2023-02-08T06:23:05;102257.91;;;3.52;66.71
33625;BME280;19962;47.820;1.930;2023-02-08T06:25:31;102256.19;;;3.51;66.62
33625;BME280;19962;47.820;1.930;2023-02-08T06:27:57;102257.63;;;3.46;66.58
33625;BME280;19962;47.820;1.930;2023-02-08T06:30:23;102255.91;;;3.54;67.11
33625;BME280;19962;47.820;1.930;2023-02-08T06:32:49;102250.75;;;3.51;66.52
33625;BME280;19962;47.820;1.930;2023-02-08T06:35:15;102257.91;;;3.52;66.68
33625;BME280;19962;47.820;1.930;2023-02-08T06:37:41;102255.91;;;3.54;66.51
33625;BME280;19962;47.820;1.930;2023-02-08T06:40:08;102255.31;;;3.60;66.38
33625;BME280;19962;47.820;1.930;2023-02-08T06:42:35;102241.34;;;3.27;66.64
33625;BME280;19962;47.820;1.930;2023-02-08T06:45:01;102241.34;;;3.36;66.82
33625;BME280;19962;47.820;1.930;2023-02-08T06:47:27;102243.19;;;3.55;66.47
33625;BME280;19962;47.820;1.930;2023-02-08T06:49:53;102244.19;;;3.63;65.96
33625;BME280;19962;47.820;1.930;2023-02-08T06:52:20;102249.59;;;3.63;65.79
33625;BME280;19962;47.820;1.930;2023-02-08T06:54:46;102253.88;;;3.66;66.09
33625;BME280;19962;47.820;1.930;2023-02-08T06:57:12;102242.88;;;3.67;65.80
33625;BME280;19962;47.820;1.930;2023-02-08T06:59:39;102257.63;;;3.46;66.28
33625;BME280;19962;47.820;1.930;2023-02-08T07:02:11;102250.91;;;3.50;66.34
33625;BME280;19962;47.820;1.930;2023-02-08T07:04:37;102267.03;;;3.70;66.27
33625;BME280;19962;47.820;1.930;2023-02-08T07:07:03;102255.03;;;3.73;65.81
33625;BME280;19962;47.820;1.930;2023-02-08T07:09:31;102257.00;;;3.80;65.62
33625;BME280;19962;47.820;1.930;2023-02-08T07:11:57;102265.59;;;3.76;65.44
33625;BME280;19962;47.820;1.930;2023-02-08T07:14:23;102267.59;;;3.64;65.52
33625;BME280;19962;47.820;1.930;2023-02-08T07:16:49;102266.03;;;3.71;65.59
33625;BME280;19962;47.820;1.930;2023-02-08T07:19:16;102259.31;;;3.75;65.40
33625;BME280;19962;47.820;1.930;2023-02-08T07:21:42;102269.16;;;3.76;65.25
33625;BME280;19962;47.820;1.930;2023-02-08T07:24:08;102267.59;;;3.64;65.19
33625;BME280;19962;47.820;1.930;2023-02-08T07:26:34;102266.16;;;3.60;65.39
33625;BME280;19962;47.820;1.930;2023-02-08T07:29:00;102260.75;;;3.60;65.53
33625;BME280;19962;47.820;1.930;2023-02-08T07:31:26;102261.34;;;3.64;65.36
33625;BME280;19962;47.820;1.930;2023-02-08T07:33:52;102264.75;;;3.66;65.27
33625;BME280;19962;47.820;1.930;2023-02-08T07:36:19;102264.16;;;3.72;65.19
33625;BME280;19962;47.820;1.930;2023-02-08T07:38:45;102252.19;;;3.74;64.94
33625;BME280;19962;47.820;1.930;2023-02-08T07:41:12;102258.44;;;3.84;64.91
33625;BME280;19962;47.820;1.930;2023-02-08T07:43:39;102260.31;;;3.74;64.77
33625;BME280;19962;47.820;1.930;2023-02-08T07:46:11;102257.28;;;3.77;64.80
33625;BME280;19962;47.820;1.930;2023-02-08T07:48:38;102253.88;;;3.75;64.58
33625;BME280;19962;47.820;1.930;2023-02-08T07:51:04;102261.88;;;3.67;64.70
33625;BME280;19962;47.820;1.930;2023-02-08T07:53:31;102266.88;;;3.72;64.77
33625;BME280;19962;47.820;1.930;2023-02-08T07:55:57;102267.31;;;3.67;64.83
33625;BME280;19962;47.820;1.930;2023-02-08T07:58:24;102264.28;;;3.80;64.56
33625;BME280;19962;47.820;1.930;2023-02-08T08:00:50;102255.47;;;3.49;65.15
33625;BME280;19962;47.820;1.930;2023-02-08T08:03:16;102260.34;;;3.46;65.54
33625;BME280;19962;47.820;1.930;2023-02-08T08:05:42;102259.31;;;3.56;65.42
33625;BME280;19962;47.820;1.930;2023-02-08T08:08:10;102255.59;;;3.67;65.11
33625;BME280;19962;47.820;1.930;2023-02-08T08:10:37;102249.28;;;3.76;64.68
33625;BME280;19962;47.820;1.930;2023-02-08T08:13:04;102246.75;;;3.74;64.67
33625;BME280;19962;47.820;1.930;2023-02-08T08:15:30;102248.41;;;3.85;64.36
33625;BME280;19962;47.820;1.930;2023-02-08T08:17:56;102249.19;;;3.58;64.44
33625;BME280;19962;47.820;1.930;2023-02-08T08:20:23;102256.47;;;3.58;64.95
33625;BME280;19962;47.820;1.930;2023-02-08T08:22:49;102258.31;;;3.67;65.04
33625;BME280;19962;47.820;1.930;2023-02-08T08:25:15;102242.72;;;3.78;64.77
33625;BME280;19962;47.820;1.930;2023-02-08T08:27:41;102249.81;;;3.98;64.44
33625;BME280;19962;47.820;1.930;2023-02-08T08:30:10;102247.09;;;4.08;63.82
33625;BME280;19962;47.820;1.930;2023-02-08T08:32:37;102258.63;;;4.19;63.75
33625;BME280;19962;47.820;1.930;2023-02-08T08:35:04;102251.03;;;4.23;63.44
33625;BME280;19962;47.820;1.930;2023-02-08T08:37:31;102250.78;;;4.16;63.44
33625;BME280;19962;47.820;1.930;2023-02-08T08:39:57;102244.88;;;4.21;63.54
33625;BME280;19962;47.820;1.930;2023-02-08T08:42:23;102250.16;;;4.22;63.16
33625;BME280;19962;47.820;1.930;2023-02-08T08:44:51;102249.19;;;4.23;63.44
33625;BME280;19962;47.820;1.930;2023-02-08T08:47:18;102244.41;;;3.98;63.69
33625;BME280;19962;47.820;1.930;2023-02-08T08:49:44;102248.66;;;4.10;63.72
33625;BME280;19962;47.820;1.930;2023-02-08T08:52:10;102257.63;;;4.20;63.70
33625;BME280;19962;47.820;1.930;2023-02-08T08:54:37;102259.03;;;4.24;63.42
33625;BME280;19962;47.820;1.930;2023-02-08T08:57:03;102249.00;;;4.25;63.36
33625;BME280;19962;47.820;1.930;2023-02-08T08:59:29;102252.97;;;4.40;63.27
33625;BME280;19962;47.820;1.930;2023-02-08T09:01:56;102262.97;;;4.39;63.09
33625;BME280;19962;47.820;1.930;2023-02-08T09:04:22;102254.41;;;4.34;62.99
33625;BME280;19962;47.820;1.930;2023-02-08T09:06:49;102258.28;;;4.32;63.47
33625;BME280;19962;47.820;1.930;2023-02-08T09:09:16;102244.16;;;4.28;63.26
33625;BME280;19962;47.820;1.930;2023-02-08T09:11:43;102259.72;;;4.36;63.10
33625;BME280;19962;47.820;1.930;2023-02-08T09:14:09;102248.84;;;4.36;62.97
33625;BME280;19962;47.820;1.930;2023-02-08T09:16:36;102240.81;;;4.44;63.03
33625;BME280;19962;47.820;1.930;2023-02-08T09:19:06;102245.59;;;4.59;62.95
33625;BME280;19962;47.820;1.930;2023-02-08T09:21:33;102238.13;;;4.61;62.55
33625;BME280;19962;47.820;1.930;2023-02-08T09:24:03;102244.88;;;4.57;62.67
33625;BME280;19962;47.820;1.930;2023-02-08T09:26:29;102245.66;;;4.67;62.60
33625;BME280;19962;47.820;1.930;2023-02-08T09:28:55;102244.44;;;4.62;62.39
33625;BME280;19962;47.820;1.930;2023-02-08T09:31:28;102245.16;;;4.54;62.47
33625;BME280;19962;47.820;1.930;2023-02-08T09:33:57;102231.34;;;4.48;62.63
33625;BME280;19962;47.820;1.930;2023-02-08T09:36:26;102233.19;;;4.74;62.39
33625;BME280;19962;47.820;1.930;2023-02-08T09:38:59;102233.16;;;4.84;62.12
33625;BME280;19962;47.820;1.930;2023-02-08T09:45:08;102246.25;;;4.88;61.80
33625;BME280;19962;47.820;1.930;2023-02-08T09:48:06;102233.69;;;4.87;61.36
33625;BME280;19962;47.820;1.930;2023-02-08T09:50:50;102229.09;;;4.88;61.99
33625;BME280;19962;47.820;1.930;2023-02-08T09:53:22;102224.78;;;5.12;61.43
33625;BME280;19962;47.820;1.930;2023-02-08T09:56:00;102232.56;;;5.25;60.71
33625;BME280;19962;47.820;1.930;2023-02-08T09:58:35;102227.34;;;5.31;60.53
33625;BME280;19962;47.820;1.930;2023-02-08T10:01:03;102230.06;;;4.69;60.70
33625;BME280;19962;47.820;1.930;2023-02-08T10:03:36;102231.00;;;4.78;61.38
33625;BME280;19962;47.820;1.930;2023-02-08T10:06:05;102210.75;;;4.90;61.60
33625;BME280;19962;47.820;1.930;2023-02-08T10:08:32;102220.91;;;5.15;61.29
33625;BME280;19962;47.820;1.930;2023-02-08T10:36:34;102204.47;;;5.42;59.57
33625;BME280;19962;47.820;1.930;2023-02-08T10:39:03;102215.88;;;5.28;59.40
33625;BME280;19962;47.820;1.930;2023-02-08T10:41:37;102211.94;;;5.22;60.08
33625;BME280;19962;47.820;1.930;2023-02-08T10:44:45;102204.56;;;5.32;59.58
33625;BME280;19962;47.820;1.930;2023-02-08T10:50:18;102208.78;;;5.70;58.58
33625;BME280;19962;47.820;1.930;2023-02-08T10:52:46;102212.41;;;5.78;58.64
33625;BME280;19962;47.820;1.930;2023-02-08T10:55:14;102208.75;;;5.87;58.54
33625;BME280;19962;47.820;1.930;2023-02-08T10:57:42;102207.97;;;5.95;58.42
33625;BME280;19962;47.820;1.930;2023-02-08T11:00:32;102209.75;;;6.04;57.54
33625;BME280;19962;47.820;1.930;2023-02-08T11:03:07;102211.66;;;6.11;57.67
33625;BME280;19962;47.820;1.930;2023-02-08T11:05:38;102215.56;;;6.09;57.87
33625;BME280;19962;47.820;1.930;2023-02-08T11:10:34;102202.09;;;6.07;57.49
33625;BME280;19962;47.820;1.930;2023-02-08T11:13:05;102204.00;;;6.15;57.38
33625;BME280;19962;47.820;1.930;2023-02-08T11:15:56;102198.59;;;6.23;57.18
33625;BME280;19962;47.820;1.930;2023-02-08T11:21:02;102188.22;;;6.26;57.07
33625;BME280;19962;47.820;1.930;2023-02-08T11:23:31;102184.50;;;6.35;56.83
33625;BME280;19962;47.820;1.930;2023-02-08T11:28:43;102186.41;;;6.43;56.64
33625;BME280;19962;47.820;1.930;2023-02-08T11:31:17;102186.88;;;6.30;56.35
33625;BME280;19962;47.820;1.930;2023-02-08T11:34:09;102193.41;;;6.45;56.59
33625;BME280;19962;47.820;1.930;2023-02-08T11:36:44;102189.59;;;6.30;56.21
33625;BME280;19962;47.820;1.930;2023-02-08T11:39:37;102196.44;;;6.34;55.80
33625;BME280;19962;47.820;1.930;2023-02-08T11:42:05;102185.41;;;6.44;56.58
33625;BME280;19962;47.820;1.930;2023-02-08T11:44:35;102180.44;;;6.39;55.87
33625;BME280;19962;47.820;1.930;2023-02-08T11:47:07;102188.97;;;6.44;56.01
33625;BME280;19962;47.820;1.930;2023-02-08T11:49:41;102175.19;;;6.46;55.87
33625;BME280;19962;47.820;1.930;2023-02-08T11:54:48;102159.38;;;6.57;56.05
33625;BME280;19962;47.820;1.930;2023-02-08T11:57:17;102162.41;;;6.54;55.73
33625;BME280;19962;47.820;1.930;2023-02-08T11:59:45;102164.81;;;6.57;56.02
33625;BME280;19962;47.820;1.930;2023-02-08T12:02:38;102161.44;;;6.63;55.54
33625;BME280;19962;47.820;1.930;2023-02-08T12:05:12;102158.38;;;6.66;55.38
33625;BME280;19962;47.820;1.930;2023-02-08T12:07:48;102158.88;;;6.70;55.46
33625;BME280;19962;47.820;1.930;2023-02-08T12:18:07;102147.38;;;7.08;54.94
33625;BME280;19962;47.820;1.930;2023-02-08T12:20:38;102151.47;;;7.04;54.85
33625;BME280;19962;47.820;1.930;2023-02-08T12:26:16;102143.78;;;6.91;54.25
33625;BME280;19962;47.820;1.930;2023-02-08T12:34:17;102127.91;;;6.95;54.58
33625;BME280;19962;47.820;1.930;2023-02-08T12:51:14;102107.66;;;7.13;53.93
33625;BME280;19962;47.820;1.930;2023-02-08T12:53:54;102097.41;;;7.15;53.45
33625;BME280;19962;47.820;1.930;2023-02-08T12:56:28;102104.22;;;7.19;53.31
33625;BME280;19962;47.820;1.930;2023-02-08T12:58:58;102101.50;;;7.19;52.81
33625;BME280;19962;47.820;1.930;2023-02-08T13:01:33;102103.53;;;7.25;52.77
33625;BME280;19962;47.820;1.930;2023-02-08T13:04:19;102090.56;;;7.19;52.27
33625;BME280;19962;47.820;1.930;2023-02-08T13:06:53;102093.81;;;7.31;52.12
33625;BME280;19962;47.820;1.930;2023-02-08T13:12:28;102073.66;;;7.48;51.87
33625;BME280;19962;47.820;1.930;2023-02-08T13:15:07;102074.84;;;7.45;51.21
33625;BME280;19962;47.820;1.930;2023-02-08T13:17:44;102063.38;;;7.50;51.79
33625;BME280;19962;47.820;1.930;2023-02-08T13:20:51;102058.59;;;7.60;51.31
33625;BME280;19962;47.820;1.930;2023-02-08T13:25:44;102051.75;;;7.64;51.78
33625;BME280;19962;47.820;1.930;2023-02-08T13:28:19;102047.13;;;7.64;51.14
33625;BME280;19962;47.820;1.930;2023-02-08T13:30:54;102046.81;;;7.67;51.07
33625;BME280;19962;47.820;1.930;2023-02-08T13:33:50;102041.19;;;7.61;50.74
33625;BME280;19962;47.820;1.930;2023-02-08T13:36:25;102032.28;;;7.67;50.43
33625;BME280;19962;47.820;1.930;2023-02-08T13:38:52;102035.50;;;7.70;50.62
33625;BME280;19962;47.820;1.930;2023-02-08T13:41:21;102024.94;;;7.67;50.56
33625;BME280;19962;47.820;1.930;2023-02-08T13:46:19;102028.00;;;7.72;50.28
33625;BME280;19962;47.820;1.930;2023-02-08T13:48:55;102020.47;;;7.74;49.96
33625;BME280;19962;47.820;1.930;2023-02-08T13:57:26;102021.13;;;7.84;49.15
33625;BME280;19962;47.820;1.930;2023-02-08T13:59:38;102016.16;;;7.88;49.22
33625;BME280;19962;47.820;1.930;2023-02-08T14:04:50;102013.94;;;7.83;48.54
33625;BME280;19962;47.820;1.930;2023-02-08T14:07:36;102017.69;;;7.82;48.69
33625;BME280;19962;47.820;1.930;2023-02-08T14:10:08;102012.38;;;7.89;48.55
33625;BME280;19962;47.820;1.930;2023-02-08T14:15:43;102001.59;;;7.95;48.66
33625;BME280;19962;47.820;1.930;2023-02-08T14:18:24;102001.25;;;7.98;47.99
33625;BME280;19962;47.820;1.930;2023-02-08T14:21:04;101999.56;;;7.97;48.25
33625;BME280;19962;47.820;1.930;2023-02-08T14:23:34;101988.66;;;7.89;48.35
33625;BME280;19962;47.820;1.930;2023-02-08T14:26:14;101995.81;;;7.90;48.00
33625;BME280;19962;47.820;1.930;2023-02-08T14:28:45;101981.59;;;7.95;48.37
33625;BME280;19962;47.820;1.930;2023-02-08T14:31:18;101993.09;;;7.90;48.32
33625;BME280;19962;47.820;1.930;2023-02-08T14:33:52;101990.50;;;7.97;48.04
33625;BME280;19962;47.820;1.930;2023-02-08T14:36:28;101990.81;;;8.02;48.11
33625;BME280;19962;47.820;1.930;2023-02-08T14:39:07;101993.22;;;7.97;47.85
33625;BME280;19962;47.820;1.930;2023-02-08T14:47:09;101988.38;;;8.07;47.98
33625;BME280;19962;47.820;1.930;2023-02-08T14:49:42;101993.19;;;8.05;47.42
33625;BME280;19962;47.820;1.930;2023-02-08T14:52:18;102000.53;;;8.04;47.37
33625;BME280;19962;47.820;1.930;2023-02-08T14:54:49;101985.81;;;8.05;47.04
33625;BME280;19962;47.820;1.930;2023-02-08T14:57:30;101989.59;;;8.04;47.11
33625;BME280;19962;47.820;1.930;2023-02-08T15:00:02;101991.28;;;8.05;46.88
33625;BME280;19962;47.820;1.930;2023-02-08T15:02:29;101993.34;;;8.03;46.83
33625;BME280;19962;47.820;1.930;2023-02-08T15:05:00;101983.06;;;8.05;46.49
33625;BME280;19962;47.820;1.930;2023-02-08T15:07:45;101987.03;;;8.03;45.40
33625;BME280;19962;47.820;1.930;2023-02-08T15:10:16;101989.75;;;8.03;45.83
33625;BME280;19962;47.820;1.930;2023-02-08T15:12:49;101998.81;;;8.03;46.10
33625;BME280;19962;47.820;1.930;2023-02-08T15:15:23;101994.00;;;8.05;45.83
33625;BME280;19962;47.820;1.930;2023-02-08T15:17:53;101990.94;;;8.08;46.12
33625;BME280;19962;47.820;1.930;2023-02-08T15:20:25;101993.31;;;8.11;46.01
33625;BME280;19962;47.820;1.930;2023-02-08T15:25:32;101997.78;;;8.04;46.04
33625;BME280;19962;47.820;1.930;2023-02-08T15:28:15;101989.94;;;8.01;46.28
33625;BME280;19962;47.820;1.930;2023-02-08T15:30:42;102004.59;;;8.08;46.42